TimeCST,TemperatureF,Dew PointF,Humidity,Sea Level PressureIn,VisibilityMPH,Wind Direction,Wind SpeedMPH,Gust SpeedMPH,PrecipitationIn,Events,Conditions,WindDirDegrees,DateUTC
12:53 AM,30.0,27.0,88,30.24,10.0,WNW,6.9,-,N/A,,Scattered Clouds,300,2012-11-05 06:53:00
1:53 AM,30.0,26.1,85,30.24,10.0,NW,4.6,-,N/A,,Scattered Clouds,320,2012-11-05 07:53:00
2:53 AM,30.9,27.0,85,30.23,10.0,NW,5.8,-,N/A,,Mostly Cloudy,320,2012-11-05 08:53:00
3:53 AM,32.0,28.0,85,30.23,10.0,NW,4.6,-,N/A,,Overcast,310,2012-11-05 09:53:00
4:53 AM,33.1,28.0,82,30.24,10.0,WNW,6.9,-,N/A,,Overcast,300,2012-11-05 10:53:00
5:53 AM,34.0,28.0,79,30.23,10.0,NNW,5.8,-,N/A,,Overcast,330,2012-11-05 11:53:00
6:53 AM,34.0,28.0,79,30.23,9.0,NNW,5.8,-,N/A,,Overcast,330,2012-11-05 12:53:00
7:17 AM,35.6,28.4,75,30.21,9.0,NNW,6.9,-,N/A,,Overcast,330,2012-11-05 13:17:00
7:40 AM,35.6,28.4,75,30.22,9.0,NNW,5.8,-,N/A,,Overcast,340,2012-11-05 13:40:00
7:53 AM,37.0,28.9,73,30.23,9.0,North,5.8,-,N/A,,Overcast,350,2012-11-05 13:53:00
8:53 AM,39.9,34.0,79,30.24,10.0,North,6.9,-,N/A,,Mostly Cloudy,360,2012-11-05 14:53:00
9:13 AM,39.2,35.6,87,30.21,8.0,North,9.2,-,0.00,Rain,Light Rain,360,2012-11-05 15:13:00
9:53 AM,39.0,35.1,86,30.25,7.0,Calm,Calm,-,0.00,Rain,Light Rain,0,2012-11-05 15:53:00
10:28 AM,39.2,35.6,87,30.22,8.0,NW,3.5,-,0.00,,Overcast,310,2012-11-05 16:28:00
10:38 AM,39.2,35.6,87,30.22,7.0,WNW,4.6,-,0.00,,Overcast,300,2012-11-05 16:38:00
10:53 AM,41.0,36.0,82,30.23,10.0,WNW,3.5,-,0.00,,Overcast,290,2012-11-05 16:53:00
11:09 AM,41.0,35.6,81,30.21,8.0,East,10.4,-,0.00,Rain,Light Rain,80,2012-11-05 17:09:00
11:53 AM,39.9,34.0,79,30.23,10.0,East,10.4,-,0.00,,Overcast,90,2012-11-05 17:53:00
12:53 PM,39.9,33.1,77,30.22,10.0,East,11.5,-,N/A,,Overcast,100,2012-11-05 18:53:00
1:21 PM,41.0,32.0,70,30.19,10.0,ESE,9.2,-,N/A,,Overcast,120,2012-11-05 19:21:00
1:53 PM,41.0,32.0,70,30.21,10.0,East,9.2,-,N/A,,Overcast,90,2012-11-05 19:53:00
2:53 PM,39.9,30.9,70,30.20,10.0,ENE,5.8,-,N/A,,Overcast,70,2012-11-05 20:53:00
3:53 PM,39.9,30.0,68,30.20,10.0,ENE,5.8,-,N/A,,Overcast,60,2012-11-05 21:53:00
4:53 PM,39.0,30.0,70,30.20,10.0,ENE,5.8,-,N/A,,Overcast,70,2012-11-05 22:53:00
5:53 PM,39.0,28.0,65,30.21,10.0,East,4.6,-,N/A,,Overcast,90,2012-11-05 23:53:00
6:53 PM,39.0,27.0,62,30.20,10.0,Calm,Calm,-,N/A,,Overcast,0,2012-11-06 00:53:00
7:53 PM,39.9,28.0,63,30.19,10.0,Calm,Calm,-,N/A,,Overcast,0,2012-11-06 01:53:00
8:53 PM,39.9,27.0,60,30.18,10.0,Calm,Calm,-,N/A,,Overcast,0,2012-11-06 02:53:00
9:53 PM,37.9,28.9,70,30.17,10.0,NNW,3.5,-,N/A,,Overcast,340,2012-11-06 03:53:00
10:53 PM,37.9,28.0,68,30.16,10.0,Calm,Calm,-,N/A,,Overcast,0,2012-11-06 04:53:00
11:53 PM,37.9,28.9,70,30.15,10.0,Calm,Calm,-,N/A,,Overcast,0,2012-11-06 05:53:00